createdAt,value
2018-03-23T00:01:56.528Z,37.00
2018-03-23T00:04:24.052Z,36.50
2018-03-23T00:06:51.560Z,36.40
2018-03-23T00:09:19.083Z,36.40
2018-03-23T00:11:46.591Z,36.20
2018-03-23T00:14:14.875Z,36.20
2018-03-23T00:16:43.152Z,36.20
2018-03-23T00:19:11.452Z,36.50
2018-03-23T00:21:38.959Z,36.60
2018-03-23T00:24:06.627Z,36.60
2018-03-23T00:26:34.135Z,36.80
2018-03-23T00:29:01.659Z,36.10
2018-03-23T00:31:29.167Z,37.10
2018-03-23T00:33:56.697Z,36.40
2018-03-23T00:36:24.973Z,36.70
2018-03-23T00:38:53.260Z,36.30
2018-03-23T00:41:20.763Z,36.70
2018-03-23T00:43:48.284Z,36.50
2018-03-23T00:46:15.839Z,36.90
2018-03-23T00:48:43.364Z,36.70
2018-03-23T00:51:10.869Z,36.70
2018-03-23T00:53:38.382Z,37.20
2018-03-23T00:56:05.898Z,36.20
2018-03-23T00:58:33.433Z,36.70
2018-03-23T01:01:01.710Z,36.70
2018-03-23T01:03:30.013Z,36.50
2018-03-23T01:05:57.526Z,36.50
2018-03-23T01:08:25.824Z,35.60
2018-03-23T01:10:54.329Z,36.00
2018-03-23T01:13:21.878Z,36.00
2018-03-23T01:15:49.424Z,36.20
2018-03-23T01:18:17.718Z,35.90
2018-03-23T01:20:45.245Z,36.10
2018-03-23T01:23:12.753Z,35.20
2018-03-23T01:25:40.367Z,36.10
2018-03-23T01:28:07.894Z,36.40
2018-03-23T01:30:35.420Z,35.90
2018-03-23T01:33:02.942Z,35.70
2018-03-23T01:35:30.464Z,35.30
2018-03-23T01:37:57.968Z,35.40
2018-03-23T01:40:26.260Z,35.60
2018-03-23T01:42:54.539Z,35.80
2018-03-23T01:45:22.828Z,35.50
2018-03-23T01:47:50.348Z,35.60
2018-03-23T01:50:17.872Z,35.90
2018-03-23T01:52:45.392Z,35.10
2018-03-23T01:55:13.688Z,35.50
2018-03-23T01:57:41.196Z,35.70
2018-03-23T02:00:08.737Z,36.10
2018-03-23T02:02:36.252Z,35.90
2018-03-23T02:05:04.559Z,35.60
2018-03-23T02:07:32.067Z,35.60
2018-03-23T02:09:59.594Z,34.80
2018-03-23T02:12:27.100Z,35.60
2018-03-23T02:14:55.390Z,35.30
2018-03-23T02:17:23.676Z,36.60
2018-03-23T02:19:51.197Z,35.60
2018-03-23T02:22:18.725Z,35.10
2018-03-23T02:24:46.261Z,35.20
2018-03-23T02:27:13.781Z,35.40
2018-03-23T02:29:41.303Z,35.70
2018-03-23T02:32:08.804Z,36.00
2018-03-23T02:34:36.313Z,35.90
2018-03-23T02:37:03.846Z,36.30
2018-03-23T02:39:32.127Z,35.50
2018-03-23T02:41:59.652Z,35.40
2018-03-23T02:44:27.175Z,36.30
2018-03-23T02:46:54.700Z,36.20
2018-03-23T02:49:22.981Z,36.20
2018-03-23T02:51:51.268Z,35.90
2018-03-23T02:54:18.777Z,35.80
2018-03-23T02:56:46.300Z,36.30
2018-03-23T02:59:13.819Z,36.50
2018-03-23T03:01:42.111Z,36.20
2018-03-23T03:04:10.394Z,36.70
2018-03-23T03:06:38.691Z,36.20
2018-03-23T03:09:06.268Z,36.40
2018-03-23T03:11:33.788Z,36.40
2018-03-23T03:14:02.068Z,35.90
2018-03-23T03:16:30.374Z,36.30
2018-03-23T03:18:57.894Z,36.40
2018-03-23T03:21:26.193Z,36.10
2018-03-23T03:23:53.700Z,36.10
2018-03-23T03:26:21.236Z,35.90
2018-03-23T03:28:48.753Z,36.10
2018-03-23T03:31:17.050Z,36.60
2018-03-23T03:33:44.572Z,36.50
2018-03-23T03:36:12.116Z,36.90
2018-03-23T03:38:39.629Z,36.20
2018-03-23T03:41:07.152Z,36.40
2018-03-23T03:43:34.672Z,36.20
2018-03-23T03:46:02.202Z,36.40
2018-03-23T03:48:30.473Z,35.90
2018-03-23T03:50:58.750Z,36.90
2018-03-23T03:53:27.090Z,36.40
2018-03-23T03:55:54.584Z,36.40
2018-03-23T03:58:22.876Z,36.50
2018-03-23T04:00:50.393Z,36.70
2018-03-23T04:03:17.918Z,37.60
2018-03-23T04:05:45.529Z,37.40
2018-03-23T04:08:13.053Z,37.00
2018-03-23T04:10:40.559Z,37.20
2018-03-23T04:13:08.854Z,36.50
2018-03-23T04:15:36.359Z,36.30
2018-03-23T04:18:03.890Z,37.00
2018-03-23T04:20:31.404Z,36.40
2018-03-23T04:22:58.932Z,37.10
2018-03-23T04:25:26.445Z,37.20
2018-03-23T04:27:54.735Z,36.40
2018-03-23T04:30:22.244Z,36.90
2018-03-23T04:32:49.773Z,36.80
2018-03-23T04:35:17.284Z,36.60
2018-03-23T04:37:44.804Z,37.20
2018-03-23T04:40:12.313Z,37.30
2018-03-23T04:42:40.600Z,37.30
2018-03-23T04:45:08.877Z,36.70
2018-03-23T04:47:37.168Z,36.60
2018-03-23T04:50:04.688Z,36.90
2018-03-23T04:52:32.220Z,37.30
2018-03-23T04:54:59.736Z,37.50
2018-03-23T04:57:28.026Z,37.10
2018-03-23T04:59:55.551Z,37.50
2018-03-23T05:02:23.859Z,37.10
2018-03-23T05:04:51.386Z,37.00
2018-03-23T05:07:18.938Z,37.20
2018-03-23T05:09:46.459Z,36.60
2018-03-23T05:12:13.982Z,36.80
2018-03-23T05:14:42.273Z,37.10
2018-03-23T05:17:09.790Z,36.90
2018-03-23T05:19:37.326Z,36.70
2018-03-23T05:22:04.847Z,37.20
2018-03-23T05:24:32.382Z,36.70
2018-03-23T05:26:59.900Z,37.00
2018-03-23T05:29:27.433Z,36.50
2018-03-23T05:31:55.705Z,37.10
2018-03-23T05:34:23.993Z,37.60
2018-03-23T05:36:51.510Z,37.30
2018-03-23T05:39:19.032Z,37.20
2018-03-23T05:41:46.544Z,37.40
2018-03-23T05:44:14.858Z,37.20
2018-03-23T05:46:42.372Z,38.30
2018-03-23T05:49:09.902Z,37.60
2018-03-23T05:51:37.420Z,37.20
2018-03-23T05:54:05.712Z,37.20
2018-03-23T05:56:33.239Z,37.30
2018-03-23T05:59:00.778Z,37.50
2018-03-23T06:01:28.332Z,36.90
2018-03-23T06:03:55.856Z,36.60
2018-03-23T06:06:23.373Z,36.80
2018-03-23T06:08:50.904Z,37.00
2018-03-23T06:11:18.429Z,37.10
2018-03-23T06:13:46.342Z,37.40
2018-03-23T06:16:13.874Z,37.00
2018-03-23T06:18:41.648Z,36.80
2018-03-23T06:21:09.188Z,37.40
2018-03-23T06:23:36.733Z,37.00
2018-03-23T06:26:04.240Z,37.00
2018-03-23T06:28:31.759Z,37.00
2018-03-23T06:30:59.292Z,37.50
2018-03-23T06:33:26.808Z,37.30
2018-03-23T06:35:54.336Z,37.20
2018-03-23T06:38:21.904Z,37.30
2018-03-23T06:40:49.441Z,37.30
2018-03-23T06:43:17.728Z,36.80
2018-03-23T06:45:45.268Z,37.20
2018-03-23T06:48:12.797Z,37.10
2018-03-23T06:50:40.341Z,37.40
2018-03-23T06:53:07.848Z,37.00
2018-03-23T06:55:35.478Z,36.70
2018-03-23T06:58:03.792Z,37.60
2018-03-23T07:00:31.316Z,37.60
2018-03-23T07:02:58.854Z,36.70
2018-03-23T07:05:26.397Z,37.00
2018-03-23T07:07:53.931Z,37.30
2018-03-23T07:10:22.236Z,36.80
2018-03-23T07:12:49.740Z,36.50
2018-03-23T07:15:17.264Z,37.50
2018-03-23T07:17:44.772Z,36.90
2018-03-23T07:20:12.304Z,37.00
2018-03-23T07:22:39.815Z,36.40
2018-03-23T07:25:08.108Z,36.10
2018-03-23T07:27:36.499Z,37.40
2018-03-23T07:30:04.024Z,37.80
2018-03-23T07:32:31.546Z,36.50
2018-03-23T07:34:59.087Z,37.00
2018-03-23T07:37:26.596Z,37.30
2018-03-23T07:39:54.120Z,35.90
2018-03-23T07:42:21.649Z,36.70
2018-03-23T07:44:49.168Z,36.30
2018-03-23T07:47:16.701Z,36.10
2018-03-23T07:49:44.214Z,35.70
2018-03-23T07:52:12.652Z,35.80
2018-03-23T07:54:40.159Z,35.60
2018-03-23T07:57:08.444Z,35.90
2018-03-23T07:59:36.723Z,35.40
2018-03-23T08:02:05.102Z,35.20
2018-03-23T08:04:32.621Z,35.20
2018-03-23T08:07:00.171Z,35.60
2018-03-23T08:09:27.696Z,35.40
2018-03-23T08:11:55.226Z,35.10
2018-03-23T08:14:23.689Z,34.40
2018-03-23T08:16:51.220Z,34.30
2018-03-23T08:19:18.928Z,34.90
2018-03-23T08:21:47.223Z,34.40
2018-03-23T08:24:14.740Z,34.20
2018-03-23T08:26:42.276Z,33.90
2018-03-23T08:29:09.798Z,33.70
2018-03-23T08:31:37.336Z,33.70
2018-03-23T08:34:05.615Z,33.70
2018-03-23T08:36:33.912Z,34.20
2018-03-23T08:39:02.186Z,33.40
2018-03-23T08:41:29.717Z,33.20
2018-03-23T08:43:57.252Z,33.50
2018-03-23T08:46:24.788Z,34.20
2018-03-23T08:48:52.305Z,32.80
2018-03-23T08:51:19.838Z,33.00
2018-03-23T08:53:47.361Z,32.60
2018-03-23T08:56:14.896Z,32.40
2018-03-23T08:58:43.189Z,32.00
2018-03-23T09:01:10.704Z,32.50
2018-03-23T09:03:38.237Z,32.60
2018-03-23T09:06:05.752Z,31.80
2018-03-23T09:08:34.060Z,32.00
2018-03-23T09:11:01.572Z,31.90
2018-03-23T09:13:29.127Z,32.30
2018-03-23T09:15:56.648Z,32.20
2018-03-23T09:18:24.193Z,31.60
2018-03-23T09:20:51.722Z,33.10
2018-03-23T09:23:20.025Z,32.10
2018-03-23T09:25:47.537Z,32.10
2018-03-23T09:28:15.826Z,32.00
2018-03-23T09:30:43.343Z,31.90
2018-03-23T09:33:10.920Z,32.10
2018-03-23T09:35:38.408Z,32.30
2018-03-23T09:38:05.942Z,31.60
2018-03-23T09:40:33.468Z,32.20
2018-03-23T09:43:01.013Z,32.30
2018-03-23T09:45:29.305Z,32.60
2018-03-23T09:47:56.836Z,32.50
2018-03-23T09:50:24.391Z,32.40
2018-03-23T09:52:51.909Z,32.10
2018-03-23T09:55:19.426Z,32.80
2018-03-23T09:57:47.736Z,31.80
2018-03-23T10:00:15.253Z,32.20
2018-03-23T10:02:42.776Z,32.40
2018-03-23T10:05:10.301Z,31.90
2018-03-23T10:07:37.841Z,31.90
2018-03-23T10:10:06.145Z,31.50
2018-03-23T10:12:33.682Z,31.70
2018-03-23T10:15:01.970Z,31.60
2018-03-23T10:17:30.256Z,31.90
2018-03-23T10:19:57.780Z,31.80
2018-03-23T10:22:25.365Z,32.00
2018-03-23T10:24:52.902Z,31.20
2018-03-23T10:27:20.428Z,31.40
2018-03-23T10:29:47.953Z,31.90
2018-03-23T10:32:15.463Z,32.10
2018-03-23T10:34:42.995Z,31.10
2018-03-23T10:37:10.509Z,31.50
2018-03-23T10:39:38.817Z,31.30
2018-03-23T10:42:06.337Z,30.90
2018-03-23T10:44:33.868Z,31.90
2018-03-23T10:47:01.384Z,31.10
2018-03-23T10:49:29.705Z,30.80
2018-03-23T10:51:57.238Z,31.20
2018-03-23T10:54:24.771Z,30.90
2018-03-23T10:56:53.062Z,30.70
2018-03-23T10:59:21.370Z,30.80
2018-03-23T11:01:54.618Z,30.60
2018-03-23T11:04:22.919Z,30.40
2018-03-23T11:06:50.446Z,30.50
2018-03-23T11:09:17.972Z,30.90
2018-03-23T11:11:45.490Z,30.70
2018-03-23T11:14:13.796Z,30.90
2018-03-23T11:16:41.307Z,30.70
2018-03-23T11:19:08.847Z,31.00
2018-03-23T11:21:36.392Z,30.70
2018-03-23T11:24:04.044Z,30.70
2018-03-23T11:26:31.568Z,30.00
2018-03-23T11:28:59.869Z,30.30
2018-03-23T11:31:27.379Z,30.20
2018-03-23T11:36:24.833Z,30.00
2018-03-23T11:38:52.348Z,30.20
2018-03-23T11:41:20.642Z,30.00
2018-03-23T11:43:48.156Z,30.40
2018-03-23T11:46:15.698Z,30.40
2018-03-23T11:48:43.216Z,30.50
2018-03-23T11:51:10.753Z,30.80
2018-03-23T11:53:39.032Z,30.80
2018-03-23T11:56:07.351Z,30.80
2018-03-23T11:58:34.868Z,30.70
2018-03-23T12:01:03.164Z,31.50
2018-03-23T12:03:30.684Z,31.40
2018-03-23T12:05:58.204Z,31.30
2018-03-23T12:08:25.718Z,30.20
2018-03-23T12:10:54.012Z,30.50
2018-03-23T12:13:22.292Z,30.90
2018-03-23T12:15:49.824Z,30.80
2018-03-23T12:18:17.343Z,31.00
2018-03-23T12:20:44.881Z,30.80
2018-03-23T12:23:12.413Z,31.50
2018-03-23T12:25:40.712Z,31.00
2018-03-23T12:28:08.259Z,31.10
2018-03-23T12:30:35.815Z,31.40
2018-03-23T12:33:04.103Z,30.60
2018-03-23T12:35:31.636Z,30.50
2018-03-23T12:37:59.217Z,31.00
2018-03-23T12:40:26.697Z,30.00
2018-03-23T12:42:54.225Z,30.00
2018-03-23T12:45:22.528Z,29.40
2018-03-23T12:47:50.044Z,29.20
2018-03-23T12:50:17.575Z,29.40
2018-03-23T12:52:45.098Z,30.10
2018-03-23T12:55:13.382Z,29.20
2018-03-23T12:57:40.916Z,29.00
2018-03-23T13:00:09.201Z,30.00
2018-03-23T13:02:37.506Z,30.90
2018-03-23T13:05:05.071Z,30.80
2018-03-23T13:07:32.617Z,31.30
2018-03-23T13:10:00.136Z,29.40
2018-03-23T13:12:27.668Z,29.90
2018-03-23T13:14:55.192Z,29.40
2018-03-23T13:17:22.729Z,29.10
2018-03-23T13:19:51.009Z,29.40
2018-03-23T13:22:19.304Z,29.30
2018-03-23T13:24:46.846Z,29.40
2018-03-23T13:27:15.144Z,29.10
2018-03-23T13:29:42.666Z,29.20
2018-03-23T13:32:11.015Z,29.40
2018-03-23T13:34:38.538Z,29.40
2018-03-23T13:37:06.068Z,29.40
2018-03-23T13:39:33.581Z,28.50
2018-03-23T13:42:01.119Z,29.10
2018-03-23T13:44:28.660Z,29.10
2018-03-23T13:46:56.981Z,28.80
2018-03-23T13:49:24.533Z,29.00
2018-03-23T13:51:52.080Z,29.10
2018-03-23T13:54:19.612Z,29.00
2018-03-23T13:56:47.921Z,28.80
2018-03-23T13:59:21.013Z,28.70
2018-03-23T14:01:48.568Z,28.40
2018-03-23T14:04:16.092Z,28.90
2018-03-23T14:06:43.636Z,28.80
2018-03-23T14:09:11.151Z,28.90
2018-03-23T14:11:38.733Z,30.40
2018-03-23T14:14:06.990Z,29.20
2018-03-23T14:16:35.805Z,29.10
2018-03-23T14:19:03.357Z,29.40
2018-03-23T14:21:30.872Z,28.80
2018-03-23T14:23:59.159Z,30.40
2018-03-23T14:26:26.667Z,30.90
2018-03-23T14:28:54.269Z,29.10
2018-03-23T14:31:21.740Z,29.20
2018-03-23T14:33:49.277Z,29.10
2018-03-23T14:36:17.570Z,28.80
2018-03-23T14:38:45.883Z,28.80
2018-03-23T14:41:13.412Z,28.90
2018-03-23T14:43:40.946Z,28.80
2018-03-23T14:46:08.461Z,28.60
2018-03-23T14:48:35.992Z,28.40
2018-03-23T14:51:03.552Z,29.20
2018-03-23T14:53:31.853Z,28.30
2018-03-23T14:55:59.386Z,28.30
2018-03-23T14:58:27.166Z,28.20
2018-03-23T15:00:54.684Z,28.80
2018-03-23T15:03:22.231Z,30.50
2018-03-23T15:05:49.757Z,29.50
2018-03-23T15:08:17.306Z,29.00
2018-03-23T15:10:44.820Z,29.60
2018-03-23T15:13:12.360Z,29.90
2018-03-23T15:15:39.874Z,29.90
2018-03-23T15:18:07.410Z,29.80
2018-03-23T15:20:34.921Z,30.10
2018-03-23T15:23:02.465Z,30.20
2018-03-23T15:25:29.979Z,30.00
2018-03-23T15:27:57.531Z,30.80
2018-03-23T15:30:25.057Z,30.00
2018-03-23T15:32:52.577Z,30.70
2018-03-23T15:35:20.894Z,30.40
2018-03-23T15:37:48.400Z,30.50
2018-03-23T15:40:15.928Z,31.10
2018-03-23T15:42:43.451Z,30.40
2018-03-23T15:45:11.754Z,30.60
2018-03-23T15:47:39.303Z,30.70
2018-03-23T15:50:06.848Z,30.40
2018-03-23T15:52:34.375Z,31.20
2018-03-23T15:55:01.904Z,30.00
2018-03-23T15:57:29.411Z,31.70
2018-03-23T15:59:57.710Z,31.30
2018-03-23T16:02:25.229Z,32.20
2018-03-23T16:04:52.759Z,31.00
2018-03-23T16:07:20.281Z,31.10
2018-03-23T16:09:47.826Z,31.10
2018-03-23T16:12:16.100Z,32.80
2018-03-23T16:14:43.626Z,32.50
2018-03-23T16:17:11.904Z,31.20
2018-03-23T16:19:40.205Z,33.10
2018-03-23T16:22:07.725Z,33.20
2018-03-23T16:24:35.432Z,31.60
2018-03-23T16:27:02.946Z,31.20
2018-03-23T16:29:30.482Z,31.60
2018-03-23T16:31:58.087Z,31.60
2018-03-23T16:34:26.343Z,31.70
2018-03-23T16:36:53.873Z,31.70
2018-03-23T16:39:22.178Z,32.20
2018-03-23T16:41:49.695Z,32.50
2018-03-23T16:44:17.237Z,32.20
2018-03-23T16:46:44.758Z,31.70
2018-03-23T16:49:12.277Z,32.20
2018-03-23T16:51:40.575Z,32.60
2018-03-23T16:54:08.853Z,32.30
2018-03-23T16:56:37.156Z,32.40
2018-03-23T16:59:04.821Z,32.40
2018-03-23T17:01:32.366Z,32.90
2018-03-23T17:03:59.886Z,33.80
2018-03-23T17:06:27.420Z,32.80
2018-03-23T17:08:54.959Z,33.60
2018-03-23T17:11:22.496Z,32.40
2018-03-23T17:13:50.776Z,33.50
2018-03-23T17:16:18.310Z,33.60
2018-03-23T17:18:45.830Z,34.40
2018-03-23T17:21:13.356Z,32.40
2018-03-23T17:23:40.872Z,32.60
2018-03-23T17:26:08.417Z,32.50
2018-03-23T17:28:35.931Z,33.30
2018-03-23T17:31:04.285Z,34.30
2018-03-23T17:33:31.796Z,34.10
2018-03-23T17:35:59.328Z,32.90
2018-03-23T17:38:27.604Z,33.00
2018-03-23T17:40:55.925Z,33.60
2018-03-23T17:43:23.500Z,33.20
2018-03-23T17:45:51.032Z,34.80
2018-03-23T17:48:18.597Z,33.00
2018-03-23T17:50:46.122Z,33.30
2018-03-23T17:53:13.632Z,33.20
2018-03-23T17:55:41.174Z,33.30
2018-03-23T17:58:08.685Z,34.40
2018-03-23T18:00:36.217Z,33.40
2018-03-23T18:03:03.728Z,33.90
2018-03-23T18:05:32.076Z,33.40
2018-03-23T18:08:00.368Z,33.20
2018-03-23T18:10:27.887Z,33.00
2018-03-23T18:12:55.428Z,32.90
2018-03-23T18:15:22.938Z,32.40
2018-03-23T18:17:51.239Z,33.30
2018-03-23T18:20:18.760Z,33.20
2018-03-23T18:22:47.060Z,33.30
2018-03-23T18:25:14.573Z,33.10
2018-03-23T18:27:42.105Z,33.50
2018-03-23T18:30:09.620Z,32.50
2018-03-23T18:32:37.919Z,34.70
2018-03-23T18:35:05.467Z,34.90
2018-03-23T18:37:33.759Z,35.10
2018-03-23T18:40:01.282Z,35.10
2018-03-23T18:42:28.818Z,33.30
2018-03-23T18:44:56.341Z,33.10
2018-03-23T18:47:23.892Z,32.30
2018-03-23T18:49:51.401Z,33.10
2018-03-23T18:52:18.953Z,33.10
2018-03-23T18:54:46.492Z,33.50
2018-03-23T18:57:14.039Z,34.40
2018-03-23T18:59:41.560Z,32.90
2018-03-23T19:02:09.112Z,32.90
2018-03-23T19:04:36.624Z,33.00
2018-03-23T19:07:04.242Z,32.40
2018-03-23T19:09:31.760Z,35.00
2018-03-23T19:11:59.397Z,33.10
2018-03-23T19:14:26.925Z,32.90
2018-03-23T19:16:54.545Z,33.50
2018-03-23T19:19:22.073Z,33.20
2018-03-23T19:21:50.360Z,34.90
2018-03-23T19:24:17.905Z,34.70
2018-03-23T19:26:46.187Z,33.10
2018-03-23T19:29:13.728Z,33.00
2018-03-23T19:31:41.240Z,33.40
2018-03-23T19:34:08.830Z,33.70
2018-03-23T19:36:36.316Z,33.30
2018-03-23T19:39:04.612Z,33.40
2018-03-23T19:41:32.168Z,33.40
2018-03-23T19:44:00.444Z,35.10
2018-03-23T19:46:28.737Z,33.30
2018-03-23T19:48:56.272Z,33.40
2018-03-23T19:51:24.590Z,33.40
2018-03-23T19:53:52.127Z,33.30
2018-03-23T19:56:19.709Z,33.70
2018-03-23T19:58:47.270Z,33.40
2018-03-23T20:01:14.794Z,33.40
2018-03-23T20:03:43.092Z,33.60
2018-03-23T20:06:10.621Z,34.00
2018-03-23T20:08:38.148Z,33.10
2018-03-23T20:11:05.672Z,33.90
2018-03-23T20:13:33.235Z,33.90
2018-03-23T20:16:00.761Z,33.70
2018-03-23T20:18:28.297Z,34.00
2018-03-23T20:21:02.271Z,35.30
2018-03-23T20:23:29.817Z,35.80
2018-03-23T20:25:58.097Z,33.60
2018-03-23T20:28:31.310Z,34.60
2018-03-23T20:30:58.849Z,34.00
2018-03-23T20:33:26.386Z,35.70
2018-03-23T20:35:53.894Z,35.50
2018-03-23T20:38:21.428Z,35.00
2018-03-23T20:40:48.952Z,35.50
2018-03-23T20:43:17.246Z,35.50
2018-03-23T20:45:45.537Z,35.60
2018-03-23T20:48:13.845Z,35.80
2018-03-23T20:50:41.376Z,34.40
2018-03-23T20:53:09.652Z,35.20
2018-03-23T20:55:37.960Z,35.20
2018-03-23T20:58:05.498Z,35.10
2018-03-23T21:00:33.048Z,35.70
2018-03-23T21:03:01.342Z,35.40
2018-03-23T21:05:28.892Z,34.20
2018-03-23T21:07:57.187Z,35.30
2018-03-23T21:10:24.727Z,34.00
2018-03-23T21:12:53.005Z,36.90
2018-03-23T21:15:21.309Z,35.50
2018-03-23T21:17:48.849Z,35.50
2018-03-23T21:20:17.158Z,36.50
2018-03-23T21:22:44.677Z,36.50
2018-03-23T21:25:12.972Z,35.30
2018-03-23T21:27:40.503Z,34.40
2018-03-23T21:30:08.033Z,35.70
2018-03-23T21:32:35.549Z,35.70
2018-03-23T21:35:03.086Z,35.40
2018-03-23T21:37:31.373Z,35.70
2018-03-23T21:39:59.763Z,36.70
2018-03-23T21:42:28.045Z,35.10
2018-03-23T21:44:55.589Z,34.10
2018-03-23T21:47:23.888Z,35.80
2018-03-23T21:49:51.425Z,36.00
2018-03-23T21:52:19.717Z,35.30
2018-03-23T21:54:47.996Z,35.60
2018-03-23T21:57:16.300Z,35.60
2018-03-23T21:59:43.818Z,35.50
2018-03-23T22:02:12.112Z,37.70
2018-03-23T22:04:39.654Z,37.50
2018-03-23T22:07:07.952Z,35.90
2018-03-23T22:09:35.472Z,35.90
2018-03-23T22:12:03.005Z,35.60
2018-03-23T22:14:30.527Z,37.50
2018-03-23T22:16:58.829Z,37.90
2018-03-23T22:19:26.346Z,37.70
2018-03-23T22:21:54.654Z,35.70
2018-03-23T22:24:22.176Z,35.70
2018-03-23T22:26:49.708Z,35.80
2018-03-23T22:29:17.221Z,35.70
2018-03-23T22:31:45.517Z,35.70
2018-03-23T22:34:13.050Z,35.90
2018-03-23T22:36:41.362Z,37.00
2018-03-23T22:39:08.872Z,37.10
2018-03-23T22:41:36.404Z,35.80
2018-03-23T22:44:03.921Z,35.10
2018-03-23T22:46:31.476Z,35.60
2018-03-23T22:48:59.756Z,36.40
2018-03-23T22:51:28.043Z,35.70
2018-03-23T22:53:55.569Z,35.80
2018-03-23T22:56:23.093Z,36.00
2018-03-23T22:58:50.624Z,35.60
2018-03-23T23:01:18.159Z,35.20
2018-03-23T23:03:46.444Z,35.90
2018-03-23T23:06:14.744Z,37.10
2018-03-23T23:08:42.273Z,37.20
2018-03-23T23:11:10.558Z,35.80
2018-03-23T23:13:38.851Z,35.80
2018-03-23T23:16:06.366Z,36.00
2018-03-23T23:18:33.892Z,35.40
2018-03-23T23:21:01.422Z,35.80
2018-03-23T23:23:29.723Z,36.10
2018-03-23T23:25:57.235Z,36.00
2018-03-23T23:28:24.760Z,36.00
2018-03-23T23:30:52.281Z,35.80
2018-03-23T23:33:20.582Z,36.00
2018-03-23T23:35:48.102Z,36.10
2018-03-23T23:38:16.414Z,37.60
2018-03-23T23:40:43.928Z,37.60
2018-03-23T23:43:11.458Z,37.50
2018-03-23T23:45:38.971Z,35.90
2018-03-23T23:48:07.276Z,36.40
2018-03-23T23:50:34.796Z,36.50
2018-03-23T23:53:03.093Z,36.20
2018-03-23T23:55:30.618Z,36.10
2018-03-23T23:57:58.156Z,36.10
